createdAt,value
2022-08-04T00:01:24.609Z,1.85
2022-08-04T00:04:38.011Z,1.60
2022-08-04T00:07:44.743Z,1.27
2022-08-04T00:10:51.480Z,2.10
2022-08-04T00:14:02.687Z,1.77
2022-08-04T00:17:08.046Z,1.65
2022-08-04T00:20:13.616Z,1.40
2022-08-04T00:23:18.811Z,1.55
2022-08-04T00:26:22.276Z,1.83
2022-08-04T00:29:28.069Z,1.50
2022-08-04T00:32:34.387Z,2.00
2022-08-04T00:35:40.677Z,1.70
2022-08-04T00:38:44.178Z,1.70
2022-08-04T00:42:02.208Z,1.83
2022-08-04T00:45:23.386Z,1.88
2022-08-04T00:48:38.341Z,1.83
2022-08-04T00:51:48.682Z,1.52
2022-08-04T00:55:28.816Z,1.67
2022-08-04T00:58:58.060Z,1.73
2022-08-04T01:02:11.873Z,2.13
2022-08-04T01:05:22.506Z,1.83
2022-08-04T01:08:43.466Z,1.90
2022-08-04T01:12:01.588Z,2.10
2022-08-04T01:15:08.392Z,1.55
2022-08-04T01:18:22.026Z,1.75
2022-08-04T01:22:10.592Z,1.83
2022-08-04T01:25:42.906Z,2.03
2022-08-04T01:29:04.919Z,1.80
2022-08-04T01:32:19.368Z,2.22
2022-08-04T01:35:47.029Z,2.10
2022-08-04T01:38:51.523Z,1.83
2022-08-04T01:41:58.390Z,1.60
2022-08-04T01:45:07.119Z,1.52
2022-08-04T01:48:12.821Z,1.73
2022-08-04T01:51:15.797Z,1.75
2022-08-04T01:54:20.833Z,1.70
2022-08-04T01:57:37.908Z,1.85
2022-08-04T02:00:56.247Z,2.20
2022-08-04T02:04:19.910Z,2.35
2022-08-04T02:07:34.205Z,1.60
2022-08-04T02:10:52.273Z,2.45
2022-08-04T02:14:03.151Z,1.75
2022-08-04T02:17:13.926Z,1.70
2022-08-04T02:20:23.316Z,1.70
2022-08-04T02:23:33.021Z,1.67
2022-08-04T02:26:37.433Z,2.53
2022-08-04T02:29:49.282Z,1.98
2022-08-04T02:32:58.469Z,1.55
2022-08-04T02:36:04.230Z,1.80
2022-08-04T02:39:08.441Z,1.58
2022-08-04T02:42:13.620Z,1.80
2022-08-04T02:45:20.370Z,1.98
2022-08-04T02:48:30.989Z,2.15
2022-08-04T02:51:36.371Z,2.10
2022-08-04T02:54:41.475Z,1.88
2022-08-04T02:57:49.789Z,1.92
2022-08-04T03:00:52.988Z,1.98
2022-08-04T03:04:18.273Z,1.70
2022-08-04T03:07:57.153Z,1.80
2022-08-04T03:11:22.549Z,2.10
2022-08-04T03:15:00.111Z,1.80
2022-08-04T03:18:30.913Z,1.98
2022-08-04T03:22:02.071Z,1.67
2022-08-04T03:25:56.589Z,1.90
2022-08-04T03:29:37.188Z,1.98
2022-08-04T03:33:10.401Z,2.03
2022-08-04T03:36:43.705Z,2.30
2022-08-04T03:40:29.992Z,2.35
2022-08-04T03:43:59.213Z,2.17
2022-08-04T03:47:42.250Z,1.90
2022-08-04T03:51:35.245Z,2.10
2022-08-04T03:55:22.627Z,2.13
2022-08-04T03:58:55.277Z,1.65
2022-08-04T04:02:15.917Z,2.20
2022-08-04T04:06:00.329Z,2.00
2022-08-04T04:09:57.667Z,2.42
2022-08-04T04:13:51.948Z,2.38
2022-08-04T04:17:10.292Z,1.88
2022-08-04T04:20:54.410Z,2.28
2022-08-04T04:24:07.241Z,2.10
2022-08-04T04:27:25.646Z,2.13
2022-08-04T04:30:37.922Z,2.05
2022-08-04T04:33:53.608Z,2.28
2022-08-04T04:37:15.084Z,3.00
2022-08-04T04:40:33.656Z,2.83
2022-08-04T04:44:07.940Z,3.38
2022-08-04T04:47:17.580Z,3.75
2022-08-04T04:50:59.942Z,3.22
2022-08-04T04:54:09.600Z,3.90
2022-08-04T04:57:16.961Z,3.60
2022-08-04T05:00:22.057Z,2.92
2022-08-04T05:03:41.929Z,2.92
2022-08-04T05:07:07.524Z,2.67
2022-08-04T05:10:28.402Z,3.03
2022-08-04T05:14:35.131Z,2.78
2022-08-04T05:17:05.457Z,2.20
2022-08-04T05:20:14.162Z,2.13
2022-08-04T05:23:22.338Z,2.22
2022-08-04T05:26:31.035Z,2.22
2022-08-04T05:29:37.110Z,2.58
2022-08-04T05:32:51.388Z,1.90
2022-08-04T05:36:20.446Z,1.58
2022-08-04T05:39:26.066Z,2.15
2022-08-04T05:42:32.814Z,2.38
2022-08-04T05:45:39.355Z,1.75
2022-08-04T05:48:43.596Z,1.67
2022-08-04T05:51:48.816Z,1.90
2022-08-04T05:54:53.476Z,1.88
2022-08-04T05:57:57.957Z,2.90
2022-08-04T06:01:01.898Z,2.20
2022-08-04T06:04:11.197Z,1.77
2022-08-04T06:07:16.280Z,2.03
2022-08-04T06:10:22.039Z,1.88
2022-08-04T06:13:48.150Z,2.03
2022-08-04T06:16:56.101Z,2.42
2022-08-04T06:20:19.372Z,2.17
2022-08-04T06:23:30.129Z,2.47
2022-08-04T06:26:35.845Z,2.03
2022-08-04T06:29:51.292Z,1.67
2022-08-04T06:33:03.653Z,1.77
2022-08-04T06:36:08.534Z,2.35
2022-08-04T06:39:14.274Z,3.25
2022-08-04T06:42:22.599Z,2.58
2022-08-04T06:45:26.614Z,2.58
2022-08-04T06:48:33.183Z,2.20
2022-08-04T06:51:46.758Z,1.88
2022-08-04T06:54:55.623Z,2.78
2022-08-04T06:58:03.081Z,2.55
2022-08-04T07:01:07.390Z,1.88
2022-08-04T07:04:11.550Z,2.17
2022-08-04T07:07:14.793Z,2.67
2022-08-04T07:10:22.313Z,2.17
2022-08-04T07:13:27.314Z,1.55
2022-08-04T07:16:31.931Z,2.55
2022-08-04T07:19:37.087Z,1.80
2022-08-04T07:22:42.957Z,2.05
2022-08-04T07:26:01.192Z,2.10
2022-08-04T07:29:15.797Z,1.83
2022-08-04T07:32:21.541Z,1.75
2022-08-04T07:36:04.975Z,2.25
2022-08-04T07:38:51.611Z,1.95
2022-08-04T07:42:01.468Z,2.65
2022-08-04T07:45:05.554Z,1.92
2022-08-04T07:48:24.587Z,1.92
2022-08-04T07:51:29.292Z,1.90
2022-08-04T07:54:32.409Z,2.47
2022-08-04T07:57:40.630Z,2.10
2022-08-04T08:00:47.190Z,2.33
2022-08-04T08:03:51.830Z,2.03
2022-08-04T08:06:54.845Z,2.20
2022-08-04T08:09:57.871Z,2.20
2022-08-04T08:13:03.113Z,1.60
2022-08-04T08:16:07.039Z,2.35
2022-08-04T08:19:10.152Z,2.33
2022-08-04T08:22:13.204Z,2.28
2022-08-04T08:25:16.168Z,2.30
2022-08-04T08:28:20.481Z,2.08
2022-08-04T08:31:55.372Z,2.25
2022-08-04T08:34:47.570Z,2.38
2022-08-04T08:37:58.537Z,2.75
2022-08-04T08:41:22.205Z,2.53
2022-08-04T08:44:54.816Z,2.55
2022-08-04T08:48:17.845Z,2.40
2022-08-04T08:51:31.646Z,2.33
2022-08-04T08:54:57.581Z,2.25
2022-08-04T08:58:18.852Z,1.95
2022-08-04T09:01:42.085Z,2.30
2022-08-04T09:05:15.937Z,1.77
2022-08-04T09:08:38.953Z,1.70
2022-08-04T09:11:49.876Z,1.85
2022-08-04T09:14:56.965Z,2.05
2022-08-04T09:18:07.222Z,2.20
2022-08-04T09:21:17.500Z,1.92
2022-08-04T09:24:35.477Z,2.15
2022-08-04T09:27:47.018Z,2.15
2022-08-04T09:30:57.859Z,1.60
2022-08-04T09:34:10.242Z,1.80
2022-08-04T09:37:23.606Z,2.40
2022-08-04T09:40:52.722Z,1.80
2022-08-04T09:44:52.373Z,2.20
2022-08-04T09:47:47.707Z,1.90
2022-08-04T09:50:58.147Z,1.88
2022-08-04T09:54:06.810Z,1.60
2022-08-04T09:57:18.021Z,1.90
2022-08-04T10:00:36.092Z,1.98
2022-08-04T10:03:47.627Z,1.63
2022-08-04T10:07:10.692Z,1.67
2022-08-04T10:10:21.837Z,1.45
2022-08-04T10:13:40.385Z,1.85
2022-08-04T10:16:50.333Z,1.38
2022-08-04T10:20:01.734Z,1.90
2022-08-04T10:23:13.885Z,1.90
2022-08-04T10:26:28.769Z,1.80
2022-08-04T10:29:38.205Z,1.83
2022-08-04T10:32:49.127Z,1.70
2022-08-04T10:35:56.255Z,1.80
2022-08-04T10:39:07.280Z,1.65
2022-08-04T10:42:23.704Z,1.67
2022-08-04T10:45:30.318Z,1.85
2022-08-04T10:48:42.261Z,1.98
2022-08-04T10:51:58.876Z,1.80
2022-08-04T10:55:12.564Z,2.13
2022-08-04T10:58:21.117Z,1.83
2022-08-04T11:02:00.055Z,1.45
2022-08-04T11:05:00.321Z,1.73
2022-08-04T11:08:14.383Z,1.27
2022-08-04T11:11:27.539Z,1.33
2022-08-04T11:14:37.417Z,1.20
2022-08-04T11:17:44.982Z,1.10
2022-08-04T11:20:54.209Z,0.95
2022-08-04T11:24:04.284Z,1.23
2022-08-04T11:27:16.946Z,1.70
2022-08-04T11:30:20.978Z,1.27
2022-08-04T11:33:35.879Z,1.50
2022-08-04T11:36:47.359Z,1.30
2022-08-04T11:39:53.657Z,1.33
2022-08-04T11:43:01.981Z,1.45
2022-08-04T11:46:10.635Z,1.60
2022-08-04T11:49:24.068Z,1.40
2022-08-04T11:52:29.154Z,1.30
2022-08-04T11:56:07.765Z,1.50
2022-08-04T11:58:59.731Z,1.63
2022-08-04T12:02:21.255Z,1.50
2022-08-04T12:05:36.835Z,1.23
2022-08-04T12:08:59.269Z,1.98
2022-08-04T12:12:10.998Z,1.58
2022-08-04T12:15:21.338Z,1.00
2022-08-04T12:18:40.591Z,1.13
2022-08-04T12:21:53.036Z,1.20
2022-08-04T12:25:01.095Z,1.55
2022-08-04T12:28:07.193Z,1.13
2022-08-04T12:31:20.280Z,1.50
2022-08-04T12:34:33.058Z,1.35
2022-08-04T12:37:44.758Z,1.40
2022-08-04T12:40:50.764Z,1.48
2022-08-04T12:43:55.509Z,1.40
2022-08-04T12:47:36.494Z,1.55
2022-08-04T12:50:26.210Z,1.40
2022-08-04T12:53:33.325Z,1.23
2022-08-04T12:56:37.686Z,1.50
2022-08-04T12:59:41.102Z,1.60
2022-08-04T13:02:47.064Z,1.15
2022-08-04T13:05:53.880Z,1.63
2022-08-04T13:09:03.097Z,1.00
2022-08-04T13:12:14.068Z,1.42
2022-08-04T13:15:21.494Z,1.55
2022-08-04T13:18:30.087Z,1.50
2022-08-04T13:21:50.318Z,1.52
2022-08-04T13:25:17.952Z,1.65
2022-08-04T13:28:26.599Z,1.23
2022-08-04T13:31:35.856Z,1.48
2022-08-04T13:34:49.433Z,1.52
2022-08-04T13:37:57.262Z,1.95
2022-08-04T13:41:03.969Z,1.40
2022-08-04T13:44:18.325Z,1.40
2022-08-04T13:47:28.379Z,1.63
2022-08-04T13:50:35.214Z,1.38
2022-08-04T13:53:41.406Z,1.40
2022-08-04T13:56:49.465Z,1.30
2022-08-04T13:59:54.479Z,1.30
2022-08-04T14:03:02.512Z,1.58
2022-08-04T14:06:22.165Z,1.52
2022-08-04T14:09:35.211Z,1.77
2022-08-04T14:12:47.115Z,1.25
2022-08-04T14:16:02.159Z,1.65
2022-08-04T14:19:08.203Z,1.58
2022-08-04T14:22:29.569Z,1.40
2022-08-04T14:25:35.590Z,1.77
2022-08-04T14:29:25.629Z,1.38
2022-08-04T14:32:04.467Z,1.70
2022-08-04T14:35:15.122Z,1.40
2022-08-04T14:38:19.419Z,1.42
2022-08-04T14:41:25.381Z,1.20
2022-08-04T14:44:28.275Z,1.27
2022-08-04T14:47:41.922Z,1.20
2022-08-04T14:50:56.067Z,1.38
2022-08-04T14:54:05.029Z,2.00
2022-08-04T14:57:10.869Z,1.48
2022-08-04T15:00:24.894Z,1.48
2022-08-04T15:03:30.630Z,2.00
2022-08-04T15:06:35.736Z,1.60
2022-08-04T15:09:40.349Z,1.52
2022-08-04T15:12:43.530Z,1.25
2022-08-04T15:16:07.120Z,1.95
2022-08-04T15:19:09.518Z,1.35
2022-08-04T15:22:17.490Z,1.40
2022-08-04T15:25:22.329Z,1.20
2022-08-04T15:28:28.824Z,1.35
2022-08-04T15:32:05.669Z,1.20
2022-08-04T15:35:09.304Z,1.05
2022-08-04T15:38:19.429Z,1.25
2022-08-04T15:41:31.889Z,1.33
2022-08-04T15:45:14.040Z,1.27
2022-08-04T15:48:35.453Z,1.35
2022-08-04T15:51:38.453Z,1.10
2022-08-04T15:54:52.618Z,1.23
2022-08-04T15:58:01.099Z,1.40
2022-08-04T16:01:17.034Z,1.20
2022-08-04T16:04:24.622Z,1.60
2022-08-04T16:07:56.696Z,1.42
2022-08-04T16:10:59.661Z,1.20
2022-08-04T16:14:13.397Z,1.55
2022-08-04T16:17:20.153Z,1.05
2022-08-04T16:20:24.436Z,1.58
2022-08-04T16:23:59.207Z,1.27
2022-08-04T16:27:08.245Z,1.55
2022-08-04T16:30:15.223Z,1.40
2022-08-04T16:33:18.150Z,1.10
2022-08-04T16:36:57.701Z,1.30
2022-08-04T16:40:38.128Z,1.30
2022-08-04T16:43:41.577Z,1.23
2022-08-04T16:47:08.900Z,1.55
2022-08-04T16:50:09.579Z,1.20
2022-08-04T16:53:40.012Z,1.58
2022-08-04T16:56:36.179Z,1.52
2022-08-04T16:59:39.530Z,1.52
2022-08-04T17:02:45.298Z,1.00
2022-08-04T17:05:48.317Z,1.58
2022-08-04T17:08:51.512Z,1.60
2022-08-04T17:11:55.995Z,1.20
2022-08-04T17:14:59.089Z,3.53
2022-08-04T17:18:20.110Z,1.90
2022-08-04T17:21:25.434Z,2.60
2022-08-04T17:24:28.376Z,2.25
2022-08-04T17:28:08.657Z,1.90
2022-08-04T17:30:57.210Z,2.03
2022-08-04T17:34:03.541Z,1.67
2022-08-04T17:40:33.222Z,1.88
2022-08-04T17:44:03.723Z,2.35
2022-08-04T17:47:18.289Z,1.83
2022-08-04T17:50:32.715Z,1.80
2022-08-04T17:54:01.472Z,1.40
2022-08-04T17:56:59.970Z,2.00
2022-08-04T18:00:02.877Z,2.42
2022-08-04T18:03:05.792Z,2.60
2022-08-04T18:06:16.395Z,3.40
2022-08-04T18:10:01.794Z,2.72
2022-08-04T18:12:47.554Z,2.22
2022-08-04T18:15:51.141Z,2.45
2022-08-04T18:19:10.235Z,2.42
2022-08-04T18:22:16.683Z,2.17
2022-08-04T18:25:51.486Z,2.55
2022-08-04T18:28:53.853Z,2.63
2022-08-04T18:31:57.032Z,3.03
2022-08-04T18:35:07.237Z,2.80
2022-08-04T18:42:00.908Z,2.95
2022-08-04T18:44:58.779Z,3.78
2022-08-04T18:48:14.106Z,2.88
2022-08-04T18:51:31.143Z,2.97
2022-08-04T18:54:35.689Z,4.00
2022-08-04T18:57:59.093Z,4.18
2022-08-04T19:01:02.050Z,4.35
2022-08-04T19:04:05.050Z,3.85
2022-08-04T19:07:30.143Z,4.40
2022-08-04T19:10:54.259Z,4.47
2022-08-04T19:14:02.731Z,4.65
2022-08-04T19:17:12.506Z,4.53
2022-08-04T19:20:25.022Z,6.25
2022-08-04T19:24:28.360Z,6.28
2022-08-04T19:26:56.450Z,7.13
2022-08-04T19:29:59.333Z,6.63
2022-08-04T19:33:04.023Z,4.90
2022-08-04T19:36:10.047Z,4.80
2022-08-04T19:39:13.344Z,4.18
2022-08-04T19:42:17.591Z,4.30
2022-08-04T19:45:42.018Z,3.60
2022-08-04T19:48:59.778Z,3.78
2022-08-04T19:52:03.827Z,3.50
2022-08-04T19:55:10.888Z,3.20
2022-08-04T19:58:15.526Z,3.15
2022-08-04T20:01:33.372Z,3.00
2022-08-04T20:04:41.148Z,3.00
2022-08-04T20:07:45.356Z,2.75
2022-08-04T20:10:51.788Z,2.40
2022-08-04T20:13:56.696Z,2.22
2022-08-04T20:16:59.996Z,2.22
2022-08-04T20:20:03.381Z,2.58
2022-08-04T20:23:11.616Z,3.13
2022-08-04T20:26:14.975Z,2.30
2022-08-04T20:29:39.019Z,2.67
2022-08-04T20:32:42.981Z,2.65
2022-08-04T20:36:05.872Z,3.08
2022-08-04T20:39:09.643Z,2.95
2022-08-04T20:42:12.799Z,2.80
2022-08-04T20:45:18.021Z,2.67
2022-08-04T20:48:28.696Z,2.70
2022-08-04T20:51:33.703Z,2.78
2022-08-04T20:54:48.076Z,2.67
2022-08-04T20:57:54.970Z,2.90
2022-08-04T21:01:05.554Z,2.65
2022-08-04T21:04:32.184Z,2.65
2022-08-04T21:07:36.431Z,2.78
2022-08-04T21:10:47.539Z,2.78
2022-08-04T21:13:52.877Z,3.00
2022-08-04T21:16:57.953Z,2.55
2022-08-04T21:20:01.352Z,2.65
2022-08-04T21:23:05.067Z,3.17
2022-08-04T21:26:10.951Z,3.05
2022-08-04T21:29:13.997Z,3.25
2022-08-04T21:32:21.506Z,2.90
2022-08-04T21:38:53.230Z,2.80
2022-08-04T21:42:29.344Z,2.42
2022-08-04T21:45:19.399Z,3.03
2022-08-04T21:48:27.477Z,2.80
2022-08-04T21:54:57.505Z,3.25
2022-08-04T21:58:00.573Z,3.00
2022-08-04T22:01:12.725Z,3.53
2022-08-04T22:04:18.185Z,3.22
2022-08-04T22:07:23.236Z,2.85
2022-08-04T22:10:32.598Z,3.55
2022-08-04T22:13:52.753Z,2.83
2022-08-04T22:17:00.995Z,3.67
2022-08-04T22:20:06.619Z,4.28
2022-08-04T22:23:30.819Z,3.88
2022-08-04T22:26:49.229Z,3.45
2022-08-04T22:29:53.928Z,3.40
2022-08-04T22:32:56.906Z,3.83
2022-08-04T22:36:01.193Z,3.95
2022-08-04T22:39:07.521Z,3.88
2022-08-04T22:42:13.264Z,4.03
2022-08-04T22:45:16.409Z,4.25
2022-08-04T22:48:19.686Z,4.00
2022-08-04T22:51:27.168Z,3.60
2022-08-04T22:54:31.873Z,3.75
2022-08-04T22:57:43.508Z,3.65
2022-08-04T23:00:58.047Z,3.70
2022-08-04T23:04:01.322Z,3.60
2022-08-04T23:07:09.588Z,3.88
2022-08-04T23:10:12.696Z,3.70
2022-08-04T23:13:15.869Z,3.80
2022-08-04T23:16:19.820Z,3.50
2022-08-04T23:19:24.643Z,3.83
2022-08-04T23:22:42.123Z,3.40
2022-08-04T23:26:08.672Z,4.13
2022-08-04T23:29:09.398Z,3.42
2022-08-04T23:32:12.324Z,3.50
2022-08-04T23:35:15.999Z,3.80
2022-08-04T23:38:30.679Z,4.10
2022-08-04T23:41:53.690Z,4.15
2022-08-04T23:44:58.442Z,3.55
2022-08-04T23:48:15.133Z,3.53
2022-08-04T23:51:22.100Z,3.97
2022-08-04T23:54:26.801Z,3.97
2022-08-04T23:57:30.844Z,3.40
